Time;durP1;ratioP1;P1;durP2;ratioP2;P2;SDS_P1;SDS_P2;PMS_P1;PMS_P2;Temp;Humidity;BMP_temperature;BMP_pressure;BME280_temperature;BME280_humidity;BME280_pressure;Samples;Min_cycle;Max_cycle;Signal;HPM_P1;HPM_P2
2021/06/02 00:00:41;;;;;;;18.27;7.75;;;11.80;89.70;;;;;;5129633;27;20104;-61
2021/06/02 00:03:31;;;;;;;15.95;9.15;;;11.70;89.90;;;;;;5117611;27;20067;-61
2021/06/02 00:05:57;;;;;;;24.52;8.75;;;11.70;89.90;;;;;;5129664;27;20089;-62
2021/06/02 00:08:24;;;;;;;13.20;7.85;;;11.70;90.10;;;;;;5129653;27;20075;-61
2021/06/02 00:10:52;;;;;;;12.57;7.80;;;11.60;90.30;;;;;;5129551;27;21312;-61
2021/06/02 00:13:19;;;;;;;16.55;8.68;;;11.50;89.70;;;;;;5129435;27;20130;-62
2021/06/02 00:15:48;;;;;;;13.00;7.75;;;11.50;89.90;;;;;;5129322;27;20448;-61
2021/06/02 00:18:14;;;;;;;23.55;8.35;;;11.60;90.20;;;;;;5129705;27;20066;-61
2021/06/02 00:20:40;;;;;;;18.33;8.18;;;11.60;90.60;;;;;;5111230;27;20487;-61
2021/06/02 00:23:07;;;;;;;18.45;8.38;;;11.50;91.00;;;;;;5129221;27;20055;-61
2021/06/02 00:25:33;;;;;;;14.52;7.97;;;11.50;90.80;;;;;;5129419;27;20053;-62
2021/06/02 00:27:59;;;;;;;23.70;7.95;;;11.50;91.00;;;;;;5129095;27;20133;-61
2021/06/02 00:30:25;;;;;;;16.10;8.15;;;11.40;91.20;;;;;;5129230;27;20145;-61
2021/06/02 00:32:56;;;;;;;12.80;7.50;;;11.40;90.80;;;;;;5128916;27;20054;-61
2021/06/02 00:35:22;;;;;;;15.52;8.07;;;11.40;90.80;;;;;;5129414;27;20074;-61
2021/06/02 00:37:50;;;;;;;13.02;7.97;;;11.30;90.70;;;;;;5129276;27;20410;-61
2021/06/02 00:40:33;;;;;;;12.70;7.70;;;11.30;91.40;;;;;;5129350;27;20467;-62
2021/06/02 00:43:00;;;;;;;12.43;7.72;;;11.30;91.30;;;;;;5129188;27;20058;-61
2021/06/02 00:45:26;;;;;;;17.73;8.30;;;11.30;91.00;;;;;;5129214;27;20533;-61
2021/06/02 00:47:54;;;;;;;15.68;7.65;;;11.20;91.10;;;;;;5128333;27;20047;-61
2021/06/02 00:50:20;;;;;;;12.95;7.40;;;11.20;91.30;;;;;;5128877;27;20059;-61
2021/06/02 00:52:47;;;;;;;15.63;6.60;;;11.10;91.50;;;;;;5126261;27;20047;-61
2021/06/02 00:55:13;;;;;;;12.70;7.32;;;11.00;91.40;;;;;;5128876;27;20125;-61
2021/06/02 00:57:47;;;;;;;20.27;7.25;;;10.90;91.00;;;;;;5128730;27;20130;-61
2021/06/02 01:00:14;;;;;;;13.57;7.07;;;10.90;91.10;;;;;;5129186;27;20043;-61
2021/06/02 01:02:45;;;;;;;15.40;7.70;;;10.80;90.90;;;;;;5128625;28;20086;-62
2021/06/02 01:05:14;;;;;;;11.52;7.60;;;10.80;91.10;;;;;;5108532;28;20055;-61
2021/06/02 01:07:40;;;;;;;13.07;7.47;;;10.70;91.40;;;;;;5108276;28;20147;-61
2021/06/02 01:10:06;;;;;;;13.25;7.88;;;10.70;91.80;;;;;;5108504;28;20485;-61
2021/06/02 01:12:32;;;;;;;13.90;8.20;;;10.50;92.10;;;;;;5108329;28;20048;-61
2021/06/02 01:14:59;;;;;;;13.30;8.75;;;10.40;92.50;;;;;;5108594;28;20047;-61
2021/06/02 01:17:29;;;;;;;12.05;8.07;;;10.40;93.10;;;;;;5108177;28;20091;-61
2021/06/02 01:19:57;;;;;;;11.20;7.88;;;10.20;92.90;;;;;;5073252;28;20147;-61
2021/06/02 01:22:25;;;;;;;20.42;9.35;;;10.20;93.00;;;;;;5108255;28;20048;-61
2021/06/02 01:24:51;;;;;;;20.85;8.40;;;10.20;94.00;;;;;;5108110;28;20062;-61
2021/06/02 01:27:17;;;;;;;13.88;8.70;;;10.10;94.20;;;;;;5108012;28;20047;-62
2021/06/02 01:29:47;;;;;;;12.07;8.50;;;10.10;94.00;;;;;;5108444;28;20044;-61
2021/06/02 01:32:38;;;;;;;19.83;9.70;;;10.10;94.30;;;;;;5081699;28;20083;-61
2021/06/02 01:35:10;;;;;;;20.42;10.25;;;10.00;95.20;;;;;;5108324;28;20092;-61
2021/06/02 01:37:45;;;;;;;22.30;9.98;;;9.90;95.90;;;;;;5108121;28;20620;-61
2021/06/02 01:40:29;;;;;;;19.27;9.73;;;9.80;96.60;;;;;;5089725;28;20115;-61
2021/06/02 01:43:26;;;;;;;19.67;9.18;;;9.70;96.50;;;;;;5108020;28;20097;-61
2021/06/02 01:45:54;;;;;;;19.50;8.80;;;9.70;96.40;;;;;;5098302;28;20069;-60
2021/06/02 01:48:42;;;;;;;15.07;8.80;;;9.70;96.50;;;;;;5107987;28;20102;-61
2021/06/02 01:51:34;;;;;;;19.25;9.43;;;9.60;96.80;;;;;;5107583;28;20092;-61
2021/06/02 01:54:28;;;;;;;16.45;10.15;;;9.60;96.50;;;;;;5108148;28;20127;-61
2021/06/02 01:57:10;;;;;;;19.15;9.32;;;9.60;96.40;;;;;;5108145;28;20071;-61
2021/06/02 01:59:39;;;;;;;18.77;9.60;;;9.50;97.00;;;;;;5108925;28;20082;-60
2021/06/02 02:02:33;;;;;;;19.05;9.95;;;9.50;96.80;;;;;;5111745;28;20422;-61
2021/06/02 02:05:30;;;;;;;16.20;9.25;;;9.50;97.10;;;;;;5056102;28;20131;-61
2021/06/02 02:08:14;;;;;;;14.50;9.38;;;9.50;97.10;;;;;;5110371;28;20188;-61
2021/06/02 02:10:49;;;;;;;20.83;9.38;;;9.60;96.80;;;;;;5110207;28;20631;-61
2021/06/02 02:13:49;;;;;;;18.63;8.85;;;9.60;96.60;;;;;;5111260;28;20046;-62
2021/06/02 02:16:23;;;;;;;12.75;7.53;;;9.60;96.20;;;;;;5111124;28;20507;-61
2021/06/02 02:19:13;;;;;;;20.05;8.82;;;9.60;96.10;;;;;;5111045;28;20052;-61
2021/06/02 02:21:42;;;;;;;20.30;7.65;;;9.60;96.00;;;;;;5111377;28;20087;-61
2021/06/02 02:24:11;;;;;;;23.52;8.32;;;9.70;95.80;;;;;;5110867;28;20043;-61
2021/06/02 02:27:06;;;;;;;14.35;8.07;;;9.70;95.60;;;;;;5111450;28;20039;-61
2021/06/02 02:30:00;;;;;;;12.95;8.18;;;9.80;95.60;;;;;;5111203;28;20519;-61
2021/06/02 02:32:48;;;;;;;13.35;7.45;;;9.80;95.50;;;;;;5051556;28;20052;-61
2021/06/02 02:35:45;;;;;;;20.15;8.23;;;9.80;95.60;;;;;;5110979;28;20106;-61
2021/06/02 02:38:23;;;;;;;17.27;8.82;;;9.80;95.70;;;;;;5110764;28;20047;-61
2021/06/02 02:41:12;;;;;;;20.17;9.20;;;9.90;95.70;;;;;;5092923;28;20086;-61
2021/06/02 02:43:57;;;;;;;16.08;8.38;;;9.90;96.20;;;;;;5092718;28;20096;-61
2021/06/02 02:46:31;;;;;;;18.58;9.13;;;9.90;96.60;;;;;;5110633;28;20506;-61
2021/06/02 02:49:11;;;;;;;19.20;8.32;;;10.00;96.40;;;;;;5110527;28;20066;-61
2021/06/02 02:52:14;;;;;;;13.55;9.20;;;10.10;96.40;;;;;;5110426;28;20047;-62
2021/06/02 02:54:57;;;;;;;17.63;8.98;;;10.20;96.30;;;;;;5110585;28;20105;-61
2021/06/02 02:57:38;;;;;;;15.00;7.97;;;10.10;96.30;;;;;;5110586;28;20138;-61
2021/06/02 03:00:16;;;;;;;12.40;7.70;;;10.20;96.70;;;;;;5097385;28;20051;-61
2021/06/02 03:03:16;;;;;;;13.43;8.02;;;10.30;96.20;;;;;;5110436;28;20047;-62
2021/06/02 03:06:12;;;;;;;13.63;8.20;;;10.50;94.90;;;;;;5088610;28;20066;-60
2021/06/02 03:08:50;;;;;;;19.95;8.25;;;10.70;93.90;;;;;;5047070;28;20541;-61
2021/06/02 03:11:22;;;;;;;14.65;7.38;;;10.80;93.40;;;;;;5109860;28;20058;-61
2021/06/02 03:14:04;;;;;;;17.75;7.43;;;10.90;93.20;;;;;;5110448;28;20087;-61
2021/06/02 03:16:36;;;;;;;16.95;7.40;;;11.00;92.90;;;;;;5110064;28;20530;-61
2021/06/02 03:19:11;;;;;;;14.00;7.82;;;11.10;92.70;;;;;;5110296;28;20083;-61
2021/06/02 03:21:49;;;;;;;18.33;6.55;;;11.20;92.30;;;;;;5110123;28;20050;-61
2021/06/02 03:24:33;;;;;;;12.10;6.53;;;11.20;91.90;;;;;;5109917;28;20138;-61
2021/06/02 03:27:21;;;;;;;14.45;6.07;;;11.40;91.30;;;;;;5110091;28;20070;-61
2021/06/02 03:30:19;;;;;;;14.32;5.22;;;11.40;91.30;;;;;;5110004;28;20055;-61
2021/06/02 03:33:13;;;;;;;8.50;5.20;;;11.60;91.10;;;;;;5100172;28;20478;-61
2021/06/02 03:36:00;;;;;;;9.90;5.75;;;11.60;90.70;;;;;;5096611;28;20188;-61
2021/06/02 03:39:11;;;;;;;16.52;5.65;;;11.60;90.80;;;;;;5106731;28;20126;-61
2021/06/02 03:41:56;;;;;;;7.47;5.15;;;11.80;90.20;;;;;;5078846;28;20090;-61
2021/06/02 03:44:42;;;;;;;19.50;5.32;;;12.00;90.10;;;;;;5109844;28;20569;-61
2021/06/02 03:47:44;;;;;;;13.20;5.35;;;12.20;89.70;;;;;;5097864;28;20057;-62
2021/06/02 03:50:26;;;;;;;7.93;4.70;;;12.20;89.70;;;;;;5109352;28;20057;-62
2021/06/02 03:53:14;;;;;;;6.30;4.60;;;12.30;88.80;;;;;;5109615;28;20562;-61
2021/06/02 03:55:46;;;;;;;12.77;4.85;;;12.40;86.10;;;;;;5109509;28;20574;-61
2021/06/02 03:58:27;;;;;;;10.50;4.88;;;12.60;85.40;;;;;;5109272;28;20134;-61
2021/06/02 04:01:19;;;;;;;7.70;4.63;;;12.80;86.30;;;;;;5109095;28;20616;-61
2021/06/02 04:04:11;;;;;;;11.23;4.85;;;13.00;84.00;;;;;;5070760;28;20083;-61
2021/06/02 04:07:06;;;;;;;5.28;3.70;;;13.10;82.70;;;;;;5108783;28;20059;-61
2021/06/02 04:09:46;;;;;;;10.30;4.57;;;13.20;82.10;;;;;;5109184;28;20126;-61
2021/06/02 04:12:32;;;;;;;12.00;3.85;;;13.40;82.00;;;;;;5108990;28;20055;-62
2021/06/02 04:14:59;;;;;;;13.85;4.68;;;13.60;81.30;;;;;;5108924;28;20134;-61
2021/06/02 04:17:26;;;;;;;13.43;3.85;;;13.70;80.10;;;;;;5108910;28;20131;-62
2021/06/02 04:19:53;;;;;;;13.25;4.35;;;13.80;80.30;;;;;;5108802;28;20501;-62
2021/06/02 04:22:24;;;;;;;10.98;4.18;;;13.90;79.50;;;;;;5108266;28;20087;-62
2021/06/02 04:24:50;;;;;;;13.45;4.22;;;14.10;79.60;;;;;;5109011;28;20053;-62
2021/06/02 04:27:19;;;;;;;14.15;3.97;;;14.30;79.60;;;;;;5108549;28;20101;-62
2021/06/02 04:29:48;;;;;;;12.77;3.58;;;14.40;78.60;;;;;;5108931;28;20575;-62
2021/06/02 04:32:14;;;;;;;13.60;3.90;;;14.50;76.00;;;;;;5108674;28;20372;-63
2021/06/02 04:34:40;;;;;;;7.43;3.97;;;14.40;76.00;;;;;;5108774;28;20047;-62
2021/06/02 04:37:08;;;;;;;8.05;3.20;;;14.50;76.60;;;;;;5108465;28;20540;-61
2021/06/02 04:39:37;;;;;;;7.60;3.10;;;14.70;75.90;;;;;;5108422;28;20135;-62
2021/06/02 04:42:05;;;;;;;11.75;3.15;;;15.00;75.60;;;;;;5108740;28;20096;-62
2021/06/02 04:44:33;;;;;;;6.80;3.00;;;15.20;72.40;;;;;;5108831;28;20154;-62
2021/06/02 04:47:00;;;;;;;14.25;3.70;;;15.10;73.20;;;;;;5108530;28;20048;-62
2021/06/02 04:50:05;;;;;;;13.25;3.17;;;15.40;73.10;;;;;;5108733;28;20071;-62
2021/06/02 04:52:49;;;;;;;12.82;3.17;;;15.60;71.80;;;;;;5099649;28;20086;-62
2021/06/02 04:55:35;;;;;;;6.25;3.10;;;15.80;73.10;;;;;;5108317;28;20515;-62
2021/06/02 04:58:25;;;;;;;4.97;2.45;;;16.00;73.40;;;;;;5106106;28;20502;-62
2021/06/02 05:01:11;;;;;;;8.18;3.72;;;16.30;72.80;;;;;;5085807;28;20043;-62
2021/06/02 05:04:10;;;;;;;7.72;2.97;;;16.60;72.60;;;;;;5108005;28;20502;-61
2021/06/02 05:07:00;;;;;;;23.70;3.00;;;16.80;71.30;;;;;;5107605;28;20473;-62
2021/06/02 05:10:03;;;;;;;23.38;2.65;;;17.00;70.20;;;;;;5108310;28;20122;-61
2021/06/02 05:12:45;;;;;;;21.40;3.22;;;17.10;69.90;;;;;;5106103;28;20055;-62
2021/06/02 05:15:32;;;;;;;17.40;3.33;;;17.30;70.30;;;;;;5097179;28;20126;-63
2021/06/02 05:18:16;;;;;;;19.48;3.10;;;17.50;69.20;;;;;;5095180;28;20052;-63
2021/06/02 05:24:17;;;;;;;16.17;3.35;;;18.00;70.00;;;;;;5088722;28;20048;-62
2021/06/02 05:26:49;;;;;;;7.20;1.95;;;18.30;67.70;;;;;;5107935;28;20090;-62
2021/06/02 05:29:32;;;;;;;11.32;2.45;;;18.50;65.40;;;;;;5108259;28;20071;-62
2021/06/02 05:32:07;;;;;;;;;;;18.40;64.50;;;;;;5100387;28;20083;-71
2021/06/02 05:35:01;;;;;;;9.48;1.95;;;18.40;63.80;;;;;;5075996;28;19974;-62
2021/06/02 05:37:42;;;;;;;16.55;2.97;;;18.30;62.70;;;;;;5099398;28;20406;-62
2021/06/02 05:40:42;;;;;;;4.50;1.58;;;18.30;62.70;;;;;;5110714;28;20054;-63
2021/06/02 05:43:14;;;;;;;6.53;1.48;;;17.90;61.90;;;;;;5110967;28;20105;-63
2021/06/02 05:45:45;;;;;;;14.63;1.80;;;18.20;62.20;;;;;;5112028;28;20055;-62
2021/06/02 05:49:03;;;;;;;6.15;1.85;;;18.40;61.90;;;;;;5112142;28;20131;-63
2021/06/02 05:51:58;;;;;;;6.78;1.35;;;18.60;61.70;;;;;;5111537;28;20071;-63
2021/06/02 05:54:41;;;;;;;3.35;1.17;;;18.90;61.10;;;;;;5108621;28;20570;-62
2021/06/02 05:57:34;;;;;;;4.28;1.13;;;19.20;60.20;;;;;;5110681;28;20046;-62
2021/06/02 06:00:28;;;;;;;8.00;1.83;;;19.50;59.30;;;;;;5083501;28;20060;-62
2021/06/02 06:03:32;;;;;;;12.35;1.33;;;19.60;59.00;;;;;;5110353;28;20047;-62
2021/06/02 06:06:16;;;;;;;3.15;1.10;;;18.90;60.00;;;;;;5108837;28;20142;-62
2021/06/02 06:09:16;;;;;;;6.00;1.40;;;19.00;60.00;;;;;;5110803;28;20124;-62
2021/06/02 06:12:01;;;;;;;10.27;1.58;;;19.40;59.20;;;;;;5083103;28;20098;-62
2021/06/02 06:14:55;;;;;;;9.55;2.10;;;20.10;57.50;;;;;;5092870;28;20127;-62
2021/06/02 06:17:46;;;;;;;19.27;4.25;;;20.40;56.60;;;;;;5092792;28;20073;-62
2021/06/02 06:20:25;;;;;;;11.77;2.45;;;20.70;56.20;;;;;;5111740;28;20043;-62
2021/06/02 06:23:00;;;;;;;10.65;2.25;;;21.00;56.90;;;;;;5093017;28;20127;-62
2021/06/02 06:25:29;;;;;;;10.73;2.67;;;20.70;55.60;;;;;;5107953;28;20542;-62
2021/06/02 06:28:07;;;;;;;12.20;2.13;;;20.80;56.40;;;;;;5110992;28;20047;-63
2021/06/02 06:30:36;;;;;;;7.88;2.08;;;21.30;55.50;;;;;;5111300;28;20039;-73
2021/06/02 06:33:09;;;;;;;4.95;1.98;;;21.30;55.30;;;;;;5111130;28;20534;-71
2021/06/02 06:35:40;;;;;;;8.35;2.88;;;21.60;54.10;;;;;;5092744;28;20051;-73
2021/06/02 06:38:12;;;;;;;5.30;1.27;;;22.30;53.90;;;;;;5092589;28;20150;-72
2021/06/02 06:43:39;;;;;;;9.75;1.40;;;24.30;50.10;;;;;;5083361;28;20047;-72
2021/06/02 06:46:06;;;;;;;8.18;0.70;;;25.30;47.90;;;;;;5075414;28;20059;-72
2021/06/02 06:48:43;;;;;;;4.82;0.65;;;25.70;46.90;;;;;;5093663;28;20048;-70
2021/06/02 06:51:12;;;;;;;10.60;1.02;;;25.30;46.50;;;;;;5091880;28;20082;-63
2021/06/02 06:53:39;;;;;;;3.78;0.50;;;25.90;46.40;;;;;;5110397;28;20047;-69
2021/06/02 06:56:08;;;;;;;42.42;3.08;;;25.80;46.00;;;;;;5092129;28;20055;-70
2021/06/02 06:58:34;;;;;;;6.90;1.10;;;25.50;46.50;;;;;;5091943;28;20175;-72
2021/06/02 07:01:02;;;;;;;14.00;1.30;;;25.80;46.20;;;;;;5110273;28;20130;-71
2021/06/02 07:03:28;;;;;;;4.05;1.40;;;25.90;46.50;;;;;;5073867;28;20055;-70
2021/06/02 07:05:55;;;;;;;5.82;1.20;;;26.20;45.50;;;;;;5091953;28;20135;-70
2021/06/02 07:08:21;;;;;;;7.65;0.80;;;25.80;46.00;;;;;;5091573;28;20483;-70
2021/06/02 07:10:47;;;;;;;8.98;0.60;;;26.00;45.70;;;;;;5110035;28;20075;-70
2021/06/02 07:13:15;;;;;;;1.02;0.70;;;26.50;45.10;;;;;;5108275;28;20047;-71
2021/06/02 07:15:41;;;;;;;2.50;0.40;;;27.00;44.30;;;;;;5109765;28;20063;-71
2021/06/02 07:18:08;;;;;;;6.30;0.80;;;27.50;43.20;;;;;;5091282;28;20124;-70
2021/06/02 07:20:36;;;;;;;3.15;0.50;;;28.30;42.90;;;;;;5074903;28;20051;-69
2021/06/02 07:23:02;;;;;;;3.58;0.32;;;28.50;41.70;;;;;;5108571;28;20071;-69
2021/06/02 07:25:30;;;;;;;4.85;0.55;;;28.40;40.80;;;;;;5091290;28;20074;-70
2021/06/02 07:27:59;;;;;;;7.43;1.00;;;26.40;44.00;;;;;;5109475;28;20364;-74
2021/06/02 07:30:26;;;;;;;4.05;0.68;;;27.00;44.00;;;;;;5108344;28;20062;-71
2021/06/02 07:32:56;;;;;;;3.83;0.68;;;28.30;43.10;;;;;;5101970;28;20071;-70
2021/06/02 07:35:24;;;;;;;8.07;1.42;;;30.00;40.80;;;;;;5109688;28;20105;-70
2021/06/02 07:37:51;;;;;;;3.60;0.40;;;30.90;40.00;;;;;;5109253;28;20138;-70
2021/06/02 07:40:17;;;;;;;8.27;0.82;;;31.70;39.80;;;;;;5104638;28;20105;-69
2021/06/02 07:42:43;;;;;;;6.22;0.47;;;33.00;38.70;;;;;;5101723;28;20125;-69
2021/06/02 07:45:11;;;;;;;2.00;0.40;;;33.80;37.90;;;;;;5109176;28;20047;-72
2021/06/02 07:47:36;;;;;;;3.42;0.70;;;33.70;37.60;;;;;;5109279;28;20622;-69
2021/06/02 07:50:04;;;;;;;5.75;0.30;;;32.80;38.20;;;;;;5109560;28;20429;-66
2021/06/02 07:52:30;;;;;;;1.05;0.70;;;33.10;38.40;;;;;;5109173;28;20073;-67
2021/06/02 07:54:56;;;;;;;3.60;0.45;;;33.00;38.40;;;;;;5109003;28;20099;-68
2021/06/02 07:57:22;;;;;;;5.15;0.68;;;33.90;38.20;;;;;;5107693;28;20048;-68
2021/06/02 07:59:48;;;;;;;6.78;0.80;;;35.10;37.50;;;;;;5109206;28;20112;-68
2021/06/02 08:02:14;;;;;;;5.28;0.40;;;35.70;37.00;;;;;;5108869;28;20043;-68
2021/06/02 08:04:40;;;;;;;4.78;0.50;;;35.60;36.80;;;;;;5108764;28;20481;-67
2021/06/02 08:07:08;;;;;;;5.82;0.35;;;37.20;35.10;;;;;;5108873;28;20127;-68
2021/06/02 08:09:35;;;;;;;2.53;0.20;;;36.80;35.60;;;;;;5095635;28;20062;-68
2021/06/02 08:12:02;;;;;;;8.63;0.40;;;37.40;35.00;;;;;;5073996;28;20079;-68
2021/06/02 08:14:30;;;;;;;8.52;0.40;;;39.20;34.10;;;;;;5108567;28;20418;-68
2021/06/02 08:16:56;;;;;;;2.15;0.22;;;39.00;33.20;;;;;;5090315;28;20130;-69
2021/06/02 08:19:22;;;;;;;3.88;0.93;;;39.50;31.90;;;;;;5108494;28;20127;-70
2021/06/02 08:21:49;;;;;;;4.07;0.30;;;37.90;32.80;;;;;;5090339;28;20202;-69
2021/06/02 08:24:15;;;;;;;7.82;0.20;;;36.00;33.70;;;;;;5108272;28;20467;-70
2021/06/02 08:26:42;;;;;;;1.45;0.43;;;34.30;34.40;;;;;;5090078;28;20048;-64
2021/06/02 08:29:08;;;;;;;2.38;0.35;;;33.40;35.00;;;;;;5108584;28;20511;-70
2021/06/02 08:31:34;;;;;;;10.02;0.40;;;32.40;35.50;;;;;;5100684;28;20518;-66
2021/06/02 08:34:01;;;;;;;0.55;0.13;;;31.70;35.60;;;;;;5108429;28;20518;-65
2021/06/02 08:36:27;;;;;;;7.22;0.43;;;29.80;38.50;;;;;;5090136;28;20053;-69
2021/06/02 08:38:54;;;;;;;4.30;0.40;;;28.60;40.30;;;;;;5107806;28;20116;-65
2021/06/02 08:41:20;;;;;;;10.80;0.25;;;27.40;40.20;;;;;;5089897;28;20146;-65
2021/06/02 08:43:48;;;;;;;3.75;0.50;;;27.80;40.00;;;;;;5108119;28;20530;-65
2021/06/02 08:46:15;;;;;;;5.78;0.28;;;26.80;41.30;;;;;;5108337;28;20051;-66
2021/06/02 08:48:49;;;;;;;5.28;0.38;;;26.20;40.70;;;;;;5108119;28;20055;-66
2021/06/02 08:51:17;;;;;;;22.10;0.93;;;25.10;41.90;;;;;;5089874;28;20513;-66
2021/06/02 08:53:46;;;;;;;10.32;0.30;;;24.50;43.80;;;;;;5108026;28;20059;-66
2021/06/02 08:56:13;;;;;;;7.85;0.52;;;24.20;43.70;;;;;;5089872;28;20111;-65
2021/06/02 08:58:39;;;;;;;2.80;0.45;;;23.10;44.60;;;;;;5107759;28;20054;-66
2021/06/02 09:01:05;;;;;;;27.10;1.35;;;22.80;45.30;;;;;;5089873;28;20123;-66
2021/06/02 09:03:32;;;;;;;7.30;0.47;;;22.90;44.80;;;;;;5089621;28;20163;-65
2021/06/02 09:05:59;;;;;;;4.50;0.40;;;22.50;45.00;;;;;;5106088;28;20510;-68
2021/06/02 09:08:27;;;;;;;3.10;0.30;;;25.20;41.40;;;;;;5089577;28;20127;-67
2021/06/02 09:10:54;;;;;;;4.75;0.40;;;25.80;40.60;;;;;;5072956;28;20043;-67
2021/06/02 09:13:23;;;;;;;1.00;0.20;;;28.00;39.10;;;;;;5089534;28;20487;-64
2021/06/02 09:15:54;;;;;;;2.97;0.30;;;27.50;38.60;;;;;;5089239;28;20135;-65
2021/06/02 09:18:22;;;;;;;4.97;0.38;;;27.50;39.30;;;;;;5089455;28;20449;-66
2021/06/02 09:20:50;;;;;;;2.20;0.40;;;25.80;40.40;;;;;;5072521;28;20052;-66
2021/06/02 09:23:27;;;;;;;5.00;0.50;;;25.20;41.20;;;;;;5107740;28;20101;-69
2021/06/02 09:26:17;;;;;;;26.67;1.08;;;27.60;39.90;;;;;;5103076;28;20048;-69
2021/06/02 09:29:11;;;;;;;5.30;0.43;;;26.90;38.40;;;;;;5106831;28;20086;-68
2021/06/02 09:31:41;;;;;;;6.22;0.43;;;25.70;40.20;;;;;;5107741;28;20051;-69
2021/06/02 09:34:17;;;;;;;7.30;0.40;;;26.80;38.50;;;;;;5094349;28;20558;-69
2021/06/02 09:36:46;;;;;;;6.72;0.30;;;27.10;37.90;;;;;;5089620;28;20069;-69
2021/06/02 09:39:15;;;;;;;1.17;0.73;;;26.60;38.30;;;;;;5089079;28;20083;-69
2021/06/02 09:41:44;;;;;;;3.58;0.20;;;28.30;37.50;;;;;;5107347;28;20130;-70
2021/06/02 09:44:19;;;;;;;1.05;0.30;;;31.40;36.60;;;;;;5089118;28;20044;-71
2021/06/02 09:47:01;;;;;;;13.00;1.00;;;31.60;35.50;;;;;;5072641;28;20463;-71
2021/06/02 09:49:28;;;;;;;4.30;0.20;;;32.10;34.50;;;;;;5107872;28;20059;-73
2021/06/02 09:51:55;;;;;;;14.30;0.65;;;30.30;35.70;;;;;;5089335;28;20135;-70
2021/06/02 09:54:23;;;;;;;9.60;0.20;;;28.80;36.10;;;;;;5107482;28;20578;-72
2021/06/02 09:56:50;;;;;;;3.22;0.10;;;29.80;36.30;;;;;;5088170;28;20044;-71
2021/06/02 09:59:17;;;;;;;5.88;0.40;;;28.20;36.40;;;;;;5082467;28;20131;-70
2021/06/02 10:01:59;;;;;;;4.68;0.30;;;26.60;37.30;;;;;;5107304;28;20048;-72
2021/06/02 10:04:27;;;;;;;;;;;26.70;38.60;;;;;;5107338;28;20531;-72
2021/06/02 10:06:53;;;;;;;21.85;0.75;;;27.10;37.50;;;;;;5072030;28;19919;-73
2021/06/02 10:09:33;;;;;;;13.00;0.95;;;27.90;36.90;;;;;;5072150;28;20047;-72
2021/06/02 10:12:05;;;;;;;3.10;0.38;;;28.40;37.00;;;;;;5107113;28;20083;-72
2021/06/02 10:14:31;;;;;;;9.63;0.40;;;28.70;36.60;;;;;;5089199;28;20043;-76
2021/06/02 10:16:58;;;;;;;5.45;0.40;;;28.00;37.60;;;;;;5069350;28;20301;-74
2021/06/02 10:19:42;;;;;;;4.72;0.55;;;28.70;36.90;;;;;;5104474;28;20495;-73
2021/06/02 10:22:22;;;;;;;1.55;0.30;;;29.00;36.30;;;;;;5099894;28;20127;-75
2021/06/02 10:24:49;;;;;;;8.05;0.50;;;29.00;36.40;;;;;;5092889;28;20044;-69
2021/06/02 10:27:17;;;;;;;11.00;0.75;;;29.20;36.50;;;;;;5109284;28;20066;-75
2021/06/02 10:29:43;;;;;;;9.05;0.55;;;29.00;37.00;;;;;;5110437;28;20097;-76
2021/06/02 10:32:09;;;;;;;7.60;0.73;;;28.20;38.10;;;;;;5099875;28;20083;-73
2021/06/02 10:34:35;;;;;;;3.17;0.30;;;28.50;37.10;;;;;;5091171;28;20044;-78
2021/06/02 10:37:02;;;;;;;5.13;0.43;;;28.80;37.10;;;;;;5110207;28;20044;-73
2021/06/02 10:39:32;;;;;;;3.20;0.20;;;27.60;38.60;;;;;;5100365;28;20147;-70
2021/06/02 10:42:36;;;;;;;20.50;0.93;;;28.20;37.80;;;;;;5090781;28;20510;-71
2021/06/02 10:45:31;;;;;;;5.20;0.30;;;28.70;37.00;;;;;;5110194;28;20122;-71
2021/06/02 10:48:03;;;;;;;5.60;1.15;;;30.10;36.50;;;;;;5090798;28;20054;-70
2021/06/02 10:50:35;;;;;;;3.15;0.40;;;31.40;35.60;;;;;;5091908;28;20047;-69
2021/06/02 10:53:23;;;;;;;1.42;0.50;;;29.50;36.70;;;;;;5095704;28;20154;-72
2021/06/02 10:55:57;;;;;;;5.68;0.45;;;28.10;38.10;;;;;;5092095;28;20104;-71
2021/06/02 10:58:45;;;;;;;4.82;0.73;;;27.70;38.90;;;;;;5079464;28;20044;-72
2021/06/02 11:01:17;;;;;;;6.18;0.47;;;27.90;38.40;;;;;;5091468;28;20130;-72
2021/06/02 11:03:46;;;;;;;4.28;0.22;;;28.40;37.80;;;;;;5058185;28;20064;-71
2021/06/02 11:06:15;;;;;;;7.47;0.75;;;28.90;36.80;;;;;;5091876;28;20052;-69
2021/06/02 11:08:48;;;;;;;4.20;0.30;;;27.80;36.80;;;;;;5110253;28;20528;-70
2021/06/02 11:11:36;;;;;;;6.65;0.60;;;28.30;36.50;;;;;;5110053;28;20126;-71
2021/06/02 11:14:17;;;;;;;8.27;0.30;;;27.80;37.40;;;;;;5109820;28;20054;-71
2021/06/02 11:16:55;;;;;;;5.25;0.40;;;29.30;36.40;;;;;;5109841;28;20078;-70
2021/06/02 11:19:23;;;;;;;20.98;0.82;;;29.40;36.40;;;;;;5091424;28;20056;-71
2021/06/02 11:21:52;;;;;;;4.47;0.43;;;30.20;36.80;;;;;;5109465;28;20128;-70
2021/06/02 11:24:33;;;;;;;8.55;0.85;;;30.70;36.40;;;;;;5110205;28;20043;-75
2021/06/02 11:27:11;;;;;;;0.75;0.38;;;30.60;35.90;;;;;;5090312;28;20510;-66
2021/06/02 11:29:53;;;;;;;8.82;0.40;;;31.10;35.60;;;;;;5074714;28;20059;-69
2021/06/02 11:32:47;;;;;;;7.70;0.40;;;30.90;35.70;;;;;;5082436;28;20126;-67
2021/06/02 11:35:15;;;;;;;6.05;0.10;;;31.00;36.10;;;;;;5109139;28;20047;-73
2021/06/02 11:37:41;;;;;;;6.07;0.20;;;30.90;35.00;;;;;;5109541;28;20142;-66
2021/06/02 11:40:14;;;;;;;3.97;0.52;;;30.50;35.60;;;;;;5109486;28;20191;-65
2021/06/02 11:42:43;;;;;;;4.53;0.30;;;30.10;36.20;;;;;;5108697;28;20116;-65
2021/06/02 11:45:15;;;;;;;0.20;0.10;;;29.60;36.10;;;;;;5098296;28;20486;-66
2021/06/02 11:47:49;;;;;;;0.90;0.10;;;29.10;36.90;;;;;;5109208;28;20043;-66
2021/06/02 11:50:23;;;;;;;4.40;0.55;;;29.00;36.50;;;;;;5109314;28;20134;-65
2021/06/02 11:52:58;;;;;;;5.75;1.38;;;29.50;36.80;;;;;;5104072;28;20043;-67
2021/06/02 11:55:25;;;;;;;2.72;0.20;;;30.10;36.40;;;;;;5090662;28;20134;-67
2021/06/02 11:57:52;;;;;;;2.25;0.15;;;30.00;36.00;;;;;;5090519;28;20082;-65
2021/06/02 12:00:24;;;;;;;3.25;0.10;;;29.70;35.90;;;;;;5108584;28;20100;-65
2021/06/02 12:02:53;;;;;;;9.25;1.20;;;30.20;36.00;;;;;;5089563;28;20043;-65
2021/06/02 12:05:24;;;;;;;2.85;0.25;;;30.30;35.00;;;;;;5108902;28;20118;-68
2021/06/02 12:08:11;;;;;;;1.75;0.10;;;29.60;35.60;;;;;;5107978;28;20550;-68
2021/06/02 12:10:47;;;;;;;6.55;0.17;;;29.20;35.80;;;;;;5108855;28;20086;-67
2021/06/02 12:13:29;;;;;;;58.60;3.90;;;29.40;35.50;;;;;;5090528;28;20039;-68
2021/06/02 12:15:57;;;;;;;;;;;28.90;36.70;;;;;;5108697;28;20322;-68
2021/06/02 12:18:41;;;;;;;7.00;0.17;;;29.10;35.90;;;;;;5108664;28;20023;-70
2021/06/02 12:21:31;;;;;;;32.65;1.95;;;29.50;35.50;;;;;;5095234;28;20051;-69
2021/06/02 12:24:00;;;;;;;5.05;0.32;;;29.50;35.10;;;;;;5095752;28;20083;-67
2021/06/02 12:26:31;;;;;;;18.02;1.25;;;30.10;35.50;;;;;;5108129;28;20139;-65
2021/06/02 12:29:02;;;;;;;14.70;0.57;;;29.80;35.40;;;;;;5108236;28;20503;-70
2021/06/02 12:31:41;;;;;;;7.68;0.40;;;29.20;36.20;;;;;;5076902;28;20069;-64
2021/06/02 12:34:09;;;;;;;10.82;0.75;;;28.70;36.30;;;;;;5096866;28;20065;-63
2021/06/02 12:36:40;;;;;;;5.68;0.30;;;29.00;36.20;;;;;;5108344;28;20083;-63
2021/06/02 12:39:10;;;;;;;5.45;0.22;;;29.20;36.20;;;;;;5105815;28;20130;-64
2021/06/02 12:41:37;;;;;;;8.43;0.40;;;29.20;36.20;;;;;;5108250;28;20058;-66
2021/06/02 12:44:04;;;;;;;5.80;0.35;;;29.40;35.90;;;;;;5085618;28;20161;-63
2021/06/02 12:46:31;;;;;;;4.65;0.35;;;29.10;35.50;;;;;;5084594;28;20139;-63
2021/06/02 12:48:57;;;;;;;1.55;0.20;;;28.70;35.80;;;;;;5089786;28;20039;-63
2021/06/02 12:51:25;;;;;;;4.78;0.13;;;28.60;36.00;;;;;;5089555;28;20075;-63
2021/06/02 12:53:52;;;;;;;2.15;0.10;;;28.50;36.40;;;;;;5106351;28;20520;-63
2021/06/02 12:56:19;;;;;;;4.15;0.30;;;29.10;36.00;;;;;;5107897;28;20158;-63
2021/06/02 12:58:54;;;;;;;2.15;0.30;;;29.70;36.40;;;;;;5107208;28;20165;-63
2021/06/02 13:01:31;;;;;;;3.35;0.30;;;30.00;35.60;;;;;;5089899;28;20126;-63
2021/06/02 13:04:00;;;;;;;5.85;0.20;;;30.00;35.40;;;;;;5107590;28;20079;-63
2021/06/02 13:06:30;;;;;;;3.05;0.20;;;28.90;35.30;;;;;;5108329;28;20126;-63
2021/06/02 13:08:57;;;;;;;17.73;1.25;;;28.30;36.30;;;;;;5089807;28;20138;-63
2021/06/02 13:11:29;;;;;;;6.68;0.40;;;28.30;36.50;;;;;;5107856;28;20052;-63
2021/06/02 13:14:02;;;;;;;3.53;0.35;;;28.60;36.90;;;;;;5089976;28;20162;-63
2021/06/02 13:16:29;;;;;;;79.50;3.75;;;28.10;36.90;;;;;;5089869;28;20079;-63
2021/06/02 13:19:00;;;;;;;4.72;0.60;;;27.30;37.30;;;;;;5107771;28;20122;-63
2021/06/02 13:21:31;;;;;;;5.15;0.30;;;27.30;37.60;;;;;;5089771;28;20491;-63
2021/06/02 13:24:14;;;;;;;2.35;0.20;;;28.00;37.30;;;;;;5107288;28;20172;-63
2021/06/02 13:26:50;;;;;;;1.40;0.60;;;28.30;36.80;;;;;;5107707;28;20580;-63
2021/06/02 13:29:17;;;;;;;11.20;0.40;;;28.30;37.10;;;;;;5107950;28;20143;-63